sensor_id;sensor_type;location;lat;lon;timestamp;pressure;altitude;pressure_sealevel;temperature;humidity
50356;BME280;36264;51.296;-0.602;2023-08-07T00:01:19;101843.16;;;15.46;100.00
50356;BME280;36264;51.296;-0.602;2023-08-07T00:03:44;101835.41;;;15.43;100.00
50356;BME280;36264;51.296;-0.602;2023-08-07T00:06:09;101833.06;;;15.35;100.00
50356;BME280;36264;51.296;-0.602;2023-08-07T00:08:35;101835.66;;;15.35;100.00
50356;BME280;36264;51.296;-0.602;2023-08-07T00:11:06;101847.09;;;15.59;100.00
50356;BME280;36264;51.296;-0.602;2023-08-07T00:13:32;101843.47;;;15.36;100.00
50356;BME280;36264;51.296;-0.602;2023-08-07T00:15:57;101847.06;;;15.34;100.00
50356;BME280;36264;51.296;-0.602;2023-08-07T00:18:23;101841.09;;;15.29;100.00
50356;BME280;36264;51.296;-0.602;2023-08-07T00:20:48;101842.81;;;15.30;100.00
50356;BME280;36264;51.296;-0.602;2023-08-07T00:23:13;101847.28;;;15.28;100.00
50356;BME280;36264;51.296;-0.602;2023-08-07T00:25:39;101848.16;;;15.27;100.00
50356;BME280;36264;51.296;-0.602;2023-08-07T00:28:04;101838.91;;;15.16;100.00
50356;BME280;36264;51.296;-0.602;2023-08-07T00:30:29;101839.88;;;15.14;100.00
50356;BME280;36264;51.296;-0.602;2023-08-07T00:32:55;101842.38;;;15.17;100.00
50356;BME280;36264;51.296;-0.602;2023-08-07T00:35:20;101843.88;;;15.24;100.00
50356;BME280;36264;51.296;-0.602;2023-08-07T00:37:45;101838.81;;;15.19;100.00
50356;BME280;36264;51.296;-0.602;2023-08-07T00:40:11;101835.22;;;15.22;100.00
50356;BME280;36264;51.296;-0.602;2023-08-07T00:42:36;101831.81;;;15.20;100.00
50356;BME280;36264;51.296;-0.602;2023-08-07T00:45:02;101834.53;;;15.17;100.00
50356;BME280;36264;51.296;-0.602;2023-08-07T00:47:27;101836.25;;;15.18;100.00
50356;BME280;36264;51.296;-0.602;2023-08-07T00:49:53;101830.34;;;15.11;100.00
50356;BME280;36264;51.296;-0.602;2023-08-07T00:52:19;101830.28;;;15.13;100.00
50356;BME280;36264;51.296;-0.602;2023-08-07T00:54:45;101836.16;;;15.21;100.00
50356;BME280;36264;51.296;-0.602;2023-08-07T00:57:12;101838.13;;;15.13;100.00
50356;BME280;36264;51.296;-0.602;2023-08-07T00:59:40;101832.16;;;15.09;100.00
50356;BME280;36264;51.296;-0.602;2023-08-07T01:02:06;101833.06;;;15.08;100.00
50356;BME280;36264;51.296;-0.602;2023-08-07T01:04:32;101831.47;;;15.04;100.00
50356;BME280;36264;51.296;-0.602;2023-08-07T01:06:57;101833.72;;;14.88;100.00
50356;BME280;36264;51.296;-0.602;2023-08-07T01:09:23;101836.34;;;14.88;100.00
50356;BME280;36264;51.296;-0.602;2023-08-07T01:12:13;101837.41;;;15.09;100.00
50356;BME280;36264;51.296;-0.602;2023-08-07T01:15:02;101834.72;;;15.11;100.00
50356;BME280;36264;51.296;-0.602;2023-08-07T01:17:28;101834.78;;;14.81;100.00
50356;BME280;36264;51.296;-0.602;2023-08-07T01:19:55;101831.00;;;14.91;100.00
50356;BME280;36264;51.296;-0.602;2023-08-07T01:22:20;101826.06;;;14.82;100.00
50356;BME280;36264;51.296;-0.602;2023-08-07T01:24:48;101827.28;;;14.98;100.00
50356;BME280;36264;51.296;-0.602;2023-08-07T01:29:52;101821.94;;;15.01;100.00
50356;BME280;36264;51.296;-0.602;2023-08-07T01:32:34;101815.88;;;15.01;100.00
50356;BME280;36264;51.296;-0.602;2023-08-07T01:35:02;101815.50;;;14.85;100.00
50356;BME280;36264;51.296;-0.602;2023-08-07T01:37:31;101820.06;;;14.78;100.00
50356;BME280;36264;51.296;-0.602;2023-08-07T01:39:59;101819.97;;;14.81;100.00
50356;BME280;36264;51.296;-0.602;2023-08-07T01:42:26;101824.53;;;14.75;100.00
50356;BME280;36264;51.296;-0.602;2023-08-07T01:44:52;101815.44;;;14.58;100.00
50356;BME280;36264;51.296;-0.602;2023-08-07T01:47:17;101822.31;;;14.62;100.00
50356;BME280;36264;51.296;-0.602;2023-08-07T01:49:43;101817.09;;;14.62;100.00
50356;BME280;36264;51.296;-0.602;2023-08-07T01:52:08;101823.22;;;14.61;100.00
50356;BME280;36264;51.296;-0.602;2023-08-07T01:54:34;101826.72;;;14.60;100.00
50356;BME280;36264;51.296;-0.602;2023-08-07T01:56:59;101823.28;;;14.58;100.00
50356;BME280;36264;51.296;-0.602;2023-08-07T01:59:24;101814.91;;;14.47;100.00
50356;BME280;36264;51.296;-0.602;2023-08-07T02:01:50;101819.25;;;14.48;100.00
50356;BME280;36264;51.296;-0.602;2023-08-07T02:04:15;101809.75;;;14.44;100.00
50356;BME280;36264;51.296;-0.602;2023-08-07T02:06:40;101820.22;;;14.44;100.00
50356;BME280;36264;51.296;-0.602;2023-08-07T02:09:06;101821.38;;;14.34;100.00
50356;BME280;36264;51.296;-0.602;2023-08-07T02:11:31;101819.72;;;14.31;100.00
50356;BME280;36264;51.296;-0.602;2023-08-07T02:13:56;101826.47;;;14.38;100.00
50356;BME280;36264;51.296;-0.602;2023-08-07T02:16:22;101829.88;;;14.42;100.00
50356;BME280;36264;51.296;-0.602;2023-08-07T02:18:47;101822.88;;;14.42;100.00
50356;BME280;36264;51.296;-0.602;2023-08-07T02:21:12;101819.59;;;14.36;100.00
50356;BME280;36264;51.296;-0.602;2023-08-07T02:23:38;101817.13;;;14.31;100.00
50356;BME280;36264;51.296;-0.602;2023-08-07T02:26:04;101819.06;;;14.24;100.00
50356;BME280;36264;51.296;-0.602;2023-08-07T02:28:29;101816.44;;;14.24;100.00
50356;BME280;36264;51.296;-0.602;2023-08-07T02:30:54;101818.19;;;14.24;100.00
50356;BME280;36264;51.296;-0.602;2023-08-07T02:33:20;101813.09;;;14.19;100.00
50356;BME280;36264;51.296;-0.602;2023-08-07T02:35:45;101812.38;;;14.14;100.00
50356;BME280;36264;51.296;-0.602;2023-08-07T02:38:11;101811.56;;;14.12;100.00
50356;BME280;36264;51.296;-0.602;2023-08-07T02:40:36;101815.22;;;14.06;100.00
50356;BME280;36264;51.296;-0.602;2023-08-07T02:43:02;101812.56;;;14.08;100.00
50356;BME280;36264;51.296;-0.602;2023-08-07T02:45:27;101810.81;;;14.08;100.00
50356;BME280;36264;51.296;-0.602;2023-08-07T02:47:53;101807.16;;;14.14;100.00
50356;BME280;36264;51.296;-0.602;2023-08-07T02:50:18;101813.25;;;14.13;100.00
50356;BME280;36264;51.296;-0.602;2023-08-07T02:52:43;101811.63;;;14.10;100.00
50356;BME280;36264;51.296;-0.602;2023-08-07T02:55:09;101821.41;;;14.04;100.00
50356;BME280;36264;51.296;-0.602;2023-08-07T02:57:34;101813.66;;;14.01;100.00
50356;BME280;36264;51.296;-0.602;2023-08-07T02:59:59;101814.69;;;13.93;100.00
50356;BME280;36264;51.296;-0.602;2023-08-07T03:02:25;101812.88;;;13.95;100.00
50356;BME280;36264;51.296;-0.602;2023-08-07T03:04:50;101813.78;;;13.96;100.00
50356;BME280;36264;51.296;-0.602;2023-08-07T03:07:15;101820.72;;;13.95;100.00
50356;BME280;36264;51.296;-0.602;2023-08-07T03:09:42;101809.72;;;13.84;100.00
50356;BME280;36264;51.296;-0.602;2023-08-07T03:12:09;101811.31;;;13.90;100.00
50356;BME280;36264;51.296;-0.602;2023-08-07T03:14:35;101812.03;;;13.95;100.00
50356;BME280;36264;51.296;-0.602;2023-08-07T03:17:00;101815.53;;;13.94;100.00
50356;BME280;36264;51.296;-0.602;2023-08-07T03:19:26;101813.84;;;13.93;100.00
50356;BME280;36264;51.296;-0.602;2023-08-07T03:21:51;101814.81;;;13.89;100.00
50356;BME280;36264;51.296;-0.602;2023-08-07T03:24:16;101816.69;;;13.85;100.00
50356;BME280;36264;51.296;-0.602;2023-08-07T03:26:42;101815.78;;;13.86;100.00
50356;BME280;36264;51.296;-0.602;2023-08-07T03:29:07;101816.69;;;13.85;100.00
50356;BME280;36264;51.296;-0.602;2023-08-07T03:31:33;101819.97;;;13.92;100.00
50356;BME280;36264;51.296;-0.602;2023-08-07T03:33:58;101811.41;;;13.87;100.00
50356;BME280;36264;51.296;-0.602;2023-08-07T03:36:23;101821.19;;;13.80;100.00
50356;BME280;36264;51.296;-0.602;2023-08-07T03:38:49;101823.69;;;13.83;100.00
50356;BME280;36264;51.296;-0.602;2023-08-07T03:41:14;101815.97;;;13.80;100.00
50356;BME280;36264;51.296;-0.602;2023-08-07T03:43:40;101820.28;;;13.80;100.00
50356;BME280;36264;51.296;-0.602;2023-08-07T03:46:05;101824.72;;;13.77;100.00
50356;BME280;36264;51.296;-0.602;2023-08-07T03:48:30;101815.41;;;13.69;100.00
50356;BME280;36264;51.296;-0.602;2023-08-07T03:51:06;101808.88;;;13.84;100.00
50356;BME280;36264;51.296;-0.602;2023-08-07T03:53:33;101805.22;;;13.58;100.00
50356;BME280;36264;51.296;-0.602;2023-08-07T03:55:59;101813.16;;;13.55;100.00
50356;BME280;36264;51.296;-0.602;2023-08-07T03:58:24;101810.66;;;13.50;100.00
50356;BME280;36264;51.296;-0.602;2023-08-07T04:00:51;101818.97;;;13.65;100.00
50356;BME280;36264;51.296;-0.602;2023-08-07T04:03:18;101810.66;;;13.50;100.00
50356;BME280;36264;51.296;-0.602;2023-08-07T04:05:43;101810.66;;;13.50;100.00
50356;BME280;36264;51.296;-0.602;2023-08-07T04:08:08;101810.72;;;13.47;100.00
50356;BME280;36264;51.296;-0.602;2023-08-07T04:10:34;101812.47;;;13.48;100.00
50356;BME280;36264;51.296;-0.602;2023-08-07T04:12:59;101811.53;;;13.49;100.00
50356;BME280;36264;51.296;-0.602;2023-08-07T04:15:24;101822.69;;;13.54;100.00
50356;BME280;36264;51.296;-0.602;2023-08-07T04:17:50;101824.44;;;13.55;100.00
50356;BME280;36264;51.296;-0.602;2023-08-07T04:20:15;101825.22;;;13.57;100.00
50356;BME280;36264;51.296;-0.602;2023-08-07T04:22:41;101824.59;;;13.49;100.00
50356;BME280;36264;51.296;-0.602;2023-08-07T04:25:06;101818.72;;;13.41;100.00
50356;BME280;36264;51.296;-0.602;2023-08-07T04:27:31;101829.34;;;13.33;100.00
50356;BME280;36264;51.296;-0.602;2023-08-07T04:29:57;101837.19;;;13.32;100.00
50356;BME280;36264;51.296;-0.602;2023-08-07T04:32:23;101833.69;;;13.34;100.00
50356;BME280;36264;51.296;-0.602;2023-08-07T04:34:48;101838.06;;;13.34;100.00
50356;BME280;36264;51.296;-0.602;2023-08-07T04:37:14;101843.19;;;13.35;100.00
50356;BME280;36264;51.296;-0.602;2023-08-07T04:39:39;101851.09;;;13.34;100.00
50356;BME280;36264;51.296;-0.602;2023-08-07T04:42:04;101848.50;;;13.34;100.00
50356;BME280;36264;51.296;-0.602;2023-08-07T04:44:30;101841.88;;;13.17;100.00
50356;BME280;36264;51.296;-0.602;2023-08-07T04:46:55;101846.19;;;13.20;100.00
50356;BME280;36264;51.296;-0.602;2023-08-07T04:49:20;101845.22;;;13.22;100.00
50356;BME280;36264;51.296;-0.602;2023-08-07T04:51:46;101847.84;;;13.22;100.00
50356;BME280;36264;51.296;-0.602;2023-08-07T04:54:11;101853.31;;;13.13;100.00
50356;BME280;36264;51.296;-0.602;2023-08-07T04:56:37;101856.50;;;13.25;100.00
50356;BME280;36264;51.296;-0.602;2023-08-07T04:59:02;101855.56;;;13.27;100.00
50356;BME280;36264;51.296;-0.602;2023-08-07T05:01:28;101863.28;;;13.32;100.00
50356;BME280;36264;51.296;-0.602;2023-08-07T05:03:53;101853.78;;;13.29;100.00
50356;BME280;36264;51.296;-0.602;2023-08-07T05:06:18;101858.94;;;13.32;100.00
50356;BME280;36264;51.296;-0.602;2023-08-07T05:08:44;101856.66;;;13.18;100.00
50356;BME280;36264;51.296;-0.602;2023-08-07T05:11:10;101859.31;;;13.15;100.00
50356;BME280;36264;51.296;-0.602;2023-08-07T05:13:35;101855.66;;;13.22;100.00
50356;BME280;36264;51.296;-0.602;2023-08-07T05:16:00;101848.63;;;13.26;100.00
50356;BME280;36264;51.296;-0.602;2023-08-07T05:18:26;101847.81;;;13.24;100.00
50356;BME280;36264;51.296;-0.602;2023-08-07T05:20:51;101852.06;;;13.28;100.00
50356;BME280;36264;51.296;-0.602;2023-08-07T05:23:16;101853.72;;;13.32;100.00
50356;BME280;36264;51.296;-0.602;2023-08-07T05:25:45;101846.28;;;13.53;100.00
50356;BME280;36264;51.296;-0.602;2023-08-07T05:28:10;101850.00;;;13.43;100.00
50356;BME280;36264;51.296;-0.602;2023-08-07T05:30:35;101850.59;;;13.52;100.00
50356;BME280;36264;51.296;-0.602;2023-08-07T05:33:01;101845.22;;;13.58;100.00
50356;BME280;36264;51.296;-0.602;2023-08-07T05:35:26;101850.34;;;13.63;100.00
50356;BME280;36264;51.296;-0.602;2023-08-07T05:37:52;101859.81;;;13.67;100.00
50356;BME280;36264;51.296;-0.602;2023-08-07T05:40:17;101854.50;;;13.70;100.00
50356;BME280;36264;51.296;-0.602;2023-08-07T05:42:43;101862.59;;;13.61;100.00
50356;BME280;36264;51.296;-0.602;2023-08-07T05:45:09;101865.84;;;13.69;100.00
50356;BME280;36264;51.296;-0.602;2023-08-07T05:47:37;101863.59;;;13.55;100.00
50356;BME280;36264;51.296;-0.602;2023-08-07T05:50:03;101872.06;;;13.64;100.00
50356;BME280;36264;51.296;-0.602;2023-08-07T05:52:28;101873.06;;;13.59;100.00
50356;BME280;36264;51.296;-0.602;2023-08-07T05:54:54;101879.91;;;13.64;100.00
50356;BME280;36264;51.296;-0.602;2023-08-07T05:57:19;101872.03;;;13.65;100.00
50356;BME280;36264;51.296;-0.602;2023-08-07T05:59:44;101867.34;;;13.78;100.00
50356;BME280;36264;51.296;-0.602;2023-08-07T06:02:10;101871.50;;;13.85;100.00
50356;BME280;36264;51.296;-0.602;2023-08-07T06:04:37;101872.16;;;13.93;100.00
50356;BME280;36264;51.296;-0.602;2023-08-07T06:07:03;101874.59;;;14.00;100.00
50356;BME280;36264;51.296;-0.602;2023-08-07T06:09:28;101877.91;;;14.06;100.00
50356;BME280;36264;51.296;-0.602;2023-08-07T06:11:53;101874.16;;;14.17;100.00
50356;BME280;36264;51.296;-0.602;2023-08-07T06:14:19;101888.69;;;14.25;100.00
50356;BME280;36264;51.296;-0.602;2023-08-07T06:16:44;101884.91;;;14.37;100.00
50356;BME280;36264;51.296;-0.602;2023-08-07T06:19:09;101888.97;;;14.46;100.00
50356;BME280;36264;51.296;-0.602;2023-08-07T06:21:35;101889.59;;;14.54;100.00
50356;BME280;36264;51.296;-0.602;2023-08-07T06:24:01;101887.47;;;14.68;100.00
50356;BME280;36264;51.296;-0.602;2023-08-07T06:26:26;101893.34;;;14.77;100.00
50356;BME280;36264;51.296;-0.602;2023-08-07T06:28:51;101886.03;;;14.88;100.00
50356;BME280;36264;51.296;-0.602;2023-08-07T06:31:18;101882.06;;;15.03;100.00
50356;BME280;36264;51.296;-0.602;2023-08-07T06:33:43;101879.50;;;15.01;100.00
50356;BME280;36264;51.296;-0.602;2023-08-07T06:36:08;101885.38;;;15.08;100.00
50356;BME280;36264;51.296;-0.602;2023-08-07T06:38:34;101892.09;;;15.17;100.00
50356;BME280;36264;51.296;-0.602;2023-08-07T06:40:59;101886.06;;;15.15;100.00
50356;BME280;36264;51.296;-0.602;2023-08-07T06:43:25;101887.56;;;15.22;100.00
50356;BME280;36264;51.296;-0.602;2023-08-07T06:45:51;101894.09;;;15.37;100.00
50356;BME280;36264;51.296;-0.602;2023-08-07T06:48:17;101894.72;;;15.44;100.00
50356;BME280;36264;51.296;-0.602;2023-08-07T06:50:43;101885.06;;;15.46;100.00
50356;BME280;36264;51.296;-0.602;2023-08-07T06:53:08;101896.06;;;15.55;100.00
50356;BME280;36264;51.296;-0.602;2023-08-07T06:55:34;101884.53;;;15.61;100.00
50356;BME280;36264;51.296;-0.602;2023-08-07T06:57:59;101880.69;;;15.71;100.00
50356;BME280;36264;51.296;-0.602;2023-08-07T07:00:25;101883.97;;;15.80;100.00
50356;BME280;36264;51.296;-0.602;2023-08-07T07:02:50;101884.00;;;15.78;100.00
50356;BME280;36264;51.296;-0.602;2023-08-07T07:05:16;101880.19;;;15.87;100.00
50356;BME280;36264;51.296;-0.602;2023-08-07T07:07:41;101883.41;;;15.95;100.00
50356;BME280;36264;51.296;-0.602;2023-08-07T07:10:07;101873.38;;;16.06;100.00
50356;BME280;36264;51.296;-0.602;2023-08-07T07:12:32;101875.88;;;16.09;100.00
50356;BME280;36264;51.296;-0.602;2023-08-07T07:14:58;101870.75;;;16.06;100.00
50356;BME280;36264;51.296;-0.602;2023-08-07T07:17:23;101878.25;;;16.17;100.00
50356;BME280;36264;51.296;-0.602;2023-08-07T07:19:48;101877.06;;;16.26;100.00
50356;BME280;36264;51.296;-0.602;2023-08-07T07:22:14;101870.94;;;16.25;100.00
50356;BME280;36264;51.296;-0.602;2023-08-07T07:24:39;101874.94;;;16.36;100.00
50356;BME280;36264;51.296;-0.602;2023-08-07T07:27:05;101873.78;;;16.43;100.00
50356;BME280;36264;51.296;-0.602;2023-08-07T07:29:30;101869.41;;;16.43;100.00
50356;BME280;36264;51.296;-0.602;2023-08-07T07:31:55;101855.91;;;16.54;100.00
50356;BME280;36264;51.296;-0.602;2023-08-07T07:34:21;101854.78;;;16.60;100.00
50356;BME280;36264;51.296;-0.602;2023-08-07T07:36:47;101852.19;;;16.60;100.00
50356;BME280;36264;51.296;-0.602;2023-08-07T07:39:12;101849.50;;;16.61;100.00
50356;BME280;36264;51.296;-0.602;2023-08-07T07:41:37;101853.47;;;16.72;100.00
50356;BME280;36264;51.296;-0.602;2023-08-07T07:44:03;101855.78;;;16.79;100.00
50356;BME280;36264;51.296;-0.602;2023-08-07T07:46:28;101859.09;;;16.84;100.00
50356;BME280;36264;51.296;-0.602;2023-08-07T07:48:54;101858.94;;;16.89;100.00
50356;BME280;36264;51.296;-0.602;2023-08-07T07:51:21;101849.41;;;16.87;100.00
50356;BME280;36264;51.296;-0.602;2023-08-07T07:53:46;101853.25;;;17.00;100.00
50356;BME280;36264;51.296;-0.602;2023-08-07T07:56:11;101852.09;;;17.07;100.00
50356;BME280;36264;51.296;-0.602;2023-08-07T07:58:37;101859.59;;;17.16;100.00
50356;BME280;36264;51.296;-0.602;2023-08-07T08:01:02;101858.47;;;17.22;100.00
50356;BME280;36264;51.296;-0.602;2023-08-07T08:03:27;101857.44;;;17.26;100.00
50356;BME280;36264;51.296;-0.602;2023-08-07T08:05:53;101855.03;;;17.42;100.00
50356;BME280;36264;51.296;-0.602;2023-08-07T08:08:19;101866.06;;;17.50;100.00
50356;BME280;36264;51.296;-0.602;2023-08-07T08:10:45;101863.16;;;17.56;100.00
50356;BME280;36264;51.296;-0.602;2023-08-07T08:13:12;101860.28;;;17.42;100.00
50356;BME280;36264;51.296;-0.602;2023-08-07T08:15:38;101868.50;;;17.55;100.00
50356;BME280;36264;51.296;-0.602;2023-08-07T08:18:03;101869.94;;;17.62;100.00
50356;BME280;36264;51.296;-0.602;2023-08-07T08:20:30;101867.31;;;17.83;100.00
50356;BME280;36264;51.296;-0.602;2023-08-07T08:22:56;101863.38;;;17.72;100.00
50356;BME280;36264;51.296;-0.602;2023-08-07T08:25:22;101869.19;;;17.79;100.00
50356;BME280;36264;51.296;-0.602;2023-08-07T08:27:47;101879.72;;;17.79;100.00
50356;BME280;36264;51.296;-0.602;2023-08-07T08:30:12;101871.31;;;17.71;100.00
50356;BME280;36264;51.296;-0.602;2023-08-07T08:32:38;101872.84;;;17.77;100.00
50356;BME280;36264;51.296;-0.602;2023-08-07T08:35:05;101880.47;;;17.83;100.00
50356;BME280;36264;51.296;-0.602;2023-08-07T08:37:31;101866.22;;;17.88;100.00
50356;BME280;36264;51.296;-0.602;2023-08-07T08:39:56;101862.53;;;17.92;100.00
50356;BME280;36264;51.296;-0.602;2023-08-07T08:42:23;101866.97;;;17.90;100.00
50356;BME280;36264;51.296;-0.602;2023-08-07T08:44:53;101865.00;;;18.16;100.00
50356;BME280;36264;51.296;-0.602;2023-08-07T08:47:21;101855.25;;;18.18;100.00
50356;BME280;36264;51.296;-0.602;2023-08-07T08:49:50;101864.66;;;18.24;100.00
50356;BME280;36264;51.296;-0.602;2023-08-07T08:52:16;101856.22;;;18.16;100.00
50356;BME280;36264;51.296;-0.602;2023-08-07T08:54:43;101849.44;;;18.31;100.00
50356;BME280;36264;51.296;-0.602;2023-08-07T08:57:09;101841.69;;;18.08;97.30
50356;BME280;36264;51.296;-0.602;2023-08-07T08:59:34;101846.53;;;18.18;95.88
50356;BME280;36264;51.296;-0.602;2023-08-07T09:02:00;101862.53;;;18.32;97.80
50356;BME280;36264;51.296;-0.602;2023-08-07T09:04:25;101855.13;;;18.40;95.30
50356;BME280;36264;51.296;-0.602;2023-08-07T09:06:51;101856.78;;;18.43;96.66
50356;BME280;36264;51.296;-0.602;2023-08-07T09:09:20;101846.44;;;18.57;94.73
50356;BME280;36264;51.296;-0.602;2023-08-07T09:11:47;101854.28;;;18.59;94.90
50356;BME280;36264;51.296;-0.602;2023-08-07T09:14:16;101847.19;;;18.78;95.75
50356;BME280;36264;51.296;-0.602;2023-08-07T09:16:44;101849.56;;;18.85;94.93
50356;BME280;36264;51.296;-0.602;2023-08-07T09:19:12;101851.44;;;18.81;94.94
50356;BME280;36264;51.296;-0.602;2023-08-07T09:21:38;101863.56;;;18.85;97.06
50356;BME280;36264;51.296;-0.602;2023-08-07T09:24:04;101858.63;;;18.96;94.49
50356;BME280;36264;51.296;-0.602;2023-08-07T09:26:32;101859.03;;;19.24;96.09
50356;BME280;36264;51.296;-0.602;2023-08-07T09:28:58;101857.81;;;19.13;94.65
50356;BME280;36264;51.296;-0.602;2023-08-07T09:31:24;101861.44;;;19.28;95.87
50356;BME280;36264;51.296;-0.602;2023-08-07T09:33:51;101850.97;;;19.09;94.75
50356;BME280;36264;51.296;-0.602;2023-08-07T09:36:17;101843.09;;;19.09;95.32
50356;BME280;36264;51.296;-0.602;2023-08-07T09:38:43;101848.47;;;18.89;92.96
50356;BME280;36264;51.296;-0.602;2023-08-07T09:41:09;101850.81;;;18.95;94.27
50356;BME280;36264;51.296;-0.602;2023-08-07T09:43:35;101850.69;;;19.15;93.66
50356;BME280;36264;51.296;-0.602;2023-08-07T09:46:02;101853.78;;;19.24;94.64
50356;BME280;36264;51.296;-0.602;2023-08-07T09:48:28;101851.47;;;19.17;93.40
50356;BME280;36264;51.296;-0.602;2023-08-07T09:50:54;101844.66;;;19.31;91.80
50356;BME280;36264;51.296;-0.602;2023-08-07T09:53:26;101858.13;;;19.60;93.02
50356;BME280;36264;51.296;-0.602;2023-08-07T09:55:53;101852.88;;;19.42;89.96
50356;BME280;36264;51.296;-0.602;2023-08-07T09:58:19;101843.94;;;19.62;87.63
50356;BME280;36264;51.296;-0.602;2023-08-07T10:00:46;101830.94;;;19.59;84.22
50356;BME280;36264;51.296;-0.602;2023-08-07T10:03:13;101838.13;;;19.73;86.22
50356;BME280;36264;51.296;-0.602;2023-08-07T10:05:39;101831.13;;;19.89;87.91
50356;BME280;36264;51.296;-0.602;2023-08-07T10:08:05;101824.06;;;19.90;84.80
50356;BME280;36264;51.296;-0.602;2023-08-07T10:10:34;101814.44;;;20.22;87.85
50356;BME280;36264;51.296;-0.602;2023-08-07T10:13:03;101822.59;;;20.34;85.38
50356;BME280;36264;51.296;-0.602;2023-08-07T10:15:29;101821.63;;;20.03;82.91
50356;BME280;36264;51.296;-0.602;2023-08-07T10:17:56;101815.31;;;19.72;82.20
50356;BME280;36264;51.296;-0.602;2023-08-07T10:20:22;101817.28;;;19.86;84.49
50356;BME280;36264;51.296;-0.602;2023-08-07T10:22:50;101824.88;;;19.75;82.79
50356;BME280;36264;51.296;-0.602;2023-08-07T10:25:20;101816.25;;;20.04;81.23
50356;BME280;36264;51.296;-0.602;2023-08-07T10:27:48;101817.47;;;20.15;82.50
50356;BME280;36264;51.296;-0.602;2023-08-07T10:30:15;101810.16;;;20.20;80.08
50356;BME280;36264;51.296;-0.602;2023-08-07T10:32:43;101812.63;;;20.07;78.15
50356;BME280;36264;51.296;-0.602;2023-08-07T10:35:09;101801.81;;;20.12;78.29
50356;BME280;36264;51.296;-0.602;2023-08-07T10:37:43;101796.53;;;20.43;80.52
50356;BME280;36264;51.296;-0.602;2023-08-07T10:40:11;101791.88;;;20.33;80.15
50356;BME280;36264;51.296;-0.602;2023-08-07T10:42:56;101788.22;;;20.35;78.16
50356;BME280;36264;51.296;-0.602;2023-08-07T10:45:26;101807.09;;;20.12;78.29
50356;BME280;36264;51.296;-0.602;2023-08-07T10:48:04;101792.44;;;20.38;78.97
50356;BME280;36264;51.296;-0.602;2023-08-07T10:53:19;101778.16;;;20.58;78.43
50356;BME280;36264;51.296;-0.602;2023-08-07T10:55:46;101784.19;;;20.60;77.75
50356;BME280;36264;51.296;-0.602;2023-08-07T10:58:23;101777.78;;;20.80;72.75
50356;BME280;36264;51.296;-0.602;2023-08-07T11:00:50;101769.38;;;20.57;74.51
50356;BME280;36264;51.296;-0.602;2023-08-07T11:03:27;101775.06;;;20.81;74.56
50356;BME280;36264;51.296;-0.602;2023-08-07T11:05:53;101770.31;;;20.56;74.21
50356;BME280;36264;51.296;-0.602;2023-08-07T11:08:23;101777.53;;;20.85;74.63
50356;BME280;36264;51.296;-0.602;2023-08-07T11:10:51;101775.16;;;20.80;74.83
50356;BME280;36264;51.296;-0.602;2023-08-07T11:13:16;101762.22;;;20.59;72.88
50356;BME280;36264;51.296;-0.602;2023-08-07T11:15:41;101765.13;;;20.71;73.67
50356;BME280;36264;51.296;-0.602;2023-08-07T11:18:07;101762.31;;;20.74;73.82
50356;BME280;36264;51.296;-0.602;2023-08-07T11:20:34;101756.63;;;20.96;71.21
50356;BME280;36264;51.296;-0.602;2023-08-07T11:23:00;101755.69;;;20.97;71.96
50356;BME280;36264;51.296;-0.602;2023-08-07T11:25:26;101755.78;;;20.95;68.45
50356;BME280;36264;51.296;-0.602;2023-08-07T11:27:51;101751.06;;;21.01;68.89
50356;BME280;36264;51.296;-0.602;2023-08-07T11:30:17;101741.16;;;21.04;68.88
50356;BME280;36264;51.296;-0.602;2023-08-07T11:32:42;101744.63;;;21.21;68.08
50356;BME280;36264;51.296;-0.602;2023-08-07T11:35:08;101744.03;;;21.30;68.93
50356;BME280;36264;51.296;-0.602;2023-08-07T11:37:33;101739.72;;;21.43;69.76
50356;BME280;36264;51.296;-0.602;2023-08-07T11:40:00;101736.72;;;21.49;68.39
50356;BME280;36264;51.296;-0.602;2023-08-07T11:42:27;101733.22;;;21.49;68.25
50356;BME280;36264;51.296;-0.602;2023-08-07T11:44:52;101735.88;;;21.49;67.17
50356;BME280;36264;51.296;-0.602;2023-08-07T11:47:18;101742.19;;;21.61;66.70
50356;BME280;36264;51.296;-0.602;2023-08-07T11:49:44;101737.38;;;21.53;65.35
50356;BME280;36264;51.296;-0.602;2023-08-07T11:52:09;101726.06;;;21.51;65.78
50356;BME280;36264;51.296;-0.602;2023-08-07T11:54:35;101733.09;;;21.36;63.79
50356;BME280;36264;51.296;-0.602;2023-08-07T11:57:00;101735.91;;;21.18;63.93
50356;BME280;36264;51.296;-0.602;2023-08-07T11:59:26;101721.59;;;21.37;66.62
50356;BME280;36264;51.296;-0.602;2023-08-07T12:01:51;101732.81;;;21.26;64.68
50356;BME280;36264;51.296;-0.602;2023-08-07T12:04:17;101724.03;;;21.40;63.73
50356;BME280;36264;51.296;-0.602;2023-08-07T12:06:53;101720.69;;;21.67;59.99
50356;BME280;36264;51.296;-0.602;2023-08-07T12:09:19;101713.50;;;21.55;64.04
50356;BME280;36264;51.296;-0.602;2023-08-07T12:11:44;101719.16;;;21.63;61.96
50356;BME280;36264;51.296;-0.602;2023-08-07T12:14:13;101704.09;;;21.92;60.69
50356;BME280;36264;51.296;-0.602;2023-08-07T12:16:44;101701.22;;;22.10;63.27
50356;BME280;36264;51.296;-0.602;2023-08-07T12:19:10;101702.66;;;22.01;62.26
50356;BME280;36264;51.296;-0.602;2023-08-07T12:21:36;101706.47;;;21.97;60.76
50356;BME280;36264;51.296;-0.602;2023-08-07T12:24:01;101702.34;;;22.05;60.34
50356;BME280;36264;51.296;-0.602;2023-08-07T12:26:27;101702.59;;;22.15;60.75
50356;BME280;36264;51.296;-0.602;2023-08-07T12:28:53;101706.97;;;22.16;59.69
50356;BME280;36264;51.296;-0.602;2023-08-07T12:31:19;101705.22;;;22.30;60.78
50356;BME280;36264;51.296;-0.602;2023-08-07T12:33:45;101714.06;;;22.16;61.58